Time;durP1;ratioP1;P1;durP2;ratioP2;P2;SDS_P1;SDS_P2;PMS_P1;PMS_P2;Temp;Humidity;BMP_temperature;BMP_pressure;BME280_temperature;BME280_humidity;BME280_pressure;Samples;Min_cycle;Max_cycle;Signal;HPM_P1;HPM_P2
2023/03/01 00:01:45;;;;;;;25.58;15.18;;;-1.30;99.90;;;;;;5032877;28;20072;-35
2023/03/01 00:04:11;;;;;;;18.77;14.30;;;-1.20;99.90;;;;;;5032746;28;20056;-38
2023/03/01 00:06:37;;;;;;;22.08;15.13;;;-1.30;99.90;;;;;;5033056;28;20044;-37
2023/03/01 00:09:03;;;;;;;19.52;14.35;;;-1.30;99.90;;;;;;5033189;28;20041;-38
2023/03/01 00:11:31;;;;;;;21.30;14.38;;;-1.30;99.90;;;;;;5032248;28;20064;-37
2023/03/01 00:13:58;;;;;;;18.70;13.27;;;-1.40;99.90;;;;;;5032987;28;20052;-37
2023/03/01 00:16:34;;;;;;;22.17;14.13;;;-1.40;99.90;;;;;;5031458;28;20391;-36
2023/03/01 00:19:00;;;;;;;21.48;15.73;;;-1.30;99.90;;;;;;5032775;28;20052;-35
2023/03/01 00:21:26;;;;;;;26.38;17.70;;;-1.40;99.90;;;;;;5032423;28;20041;-38
2023/03/01 00:23:53;;;;;;;23.33;14.93;;;-1.40;99.90;;;;;;5032650;28;20421;-37
2023/03/01 00:26:20;;;;;;;25.80;15.90;;;-1.40;99.90;;;;;;5030960;28;20041;-37
2023/03/01 00:28:46;;;;;;;25.05;14.70;;;-1.40;99.90;;;;;;5032150;28;20079;-36
2023/03/01 00:31:18;;;;;;;23.65;15.07;;;-1.50;99.90;;;;;;5031861;28;20044;-37
2023/03/01 00:33:44;;;;;;;23.30;16.38;;;-1.50;99.90;;;;;;5032024;28;20037;-39
2023/03/01 00:36:11;;;;;;;27.17;16.77;;;-1.50;99.90;;;;;;5032272;28;20563;-39
2023/03/01 00:38:39;;;;;;;21.90;15.55;;;-1.50;99.90;;;;;;5032360;28;20482;-39
2023/03/01 00:41:07;;;;;;;21.08;15.73;;;-1.50;99.90;;;;;;5032138;28;20041;-36
2023/03/01 00:43:36;;;;;;;21.73;15.43;;;-1.50;99.90;;;;;;5031823;28;20072;-37
2023/03/01 00:46:07;;;;;;;27.17;15.30;;;-1.50;99.90;;;;;;5012469;28;20503;-37
2023/03/01 00:48:33;;;;;;;24.65;15.65;;;-1.60;99.90;;;;;;5011795;28;20037;-39
2023/03/01 00:51:07;;;;;;;21.70;14.50;;;-1.50;99.90;;;;;;5011955;28;20038;-38
2023/03/01 00:53:33;;;;;;;24.42;15.63;;;-1.60;99.90;;;;;;5011706;28;20046;-34
2023/03/01 00:55:59;;;;;;;21.63;15.10;;;-1.60;99.90;;;;;;5011870;28;20046;-36
2023/03/01 00:58:24;;;;;;;19.73;14.35;;;-1.60;99.90;;;;;;5011772;28;20061;-41
2023/03/01 01:00:52;;;;;;;23.55;14.82;;;-1.60;99.90;;;;;;5011267;28;20081;-37
2023/03/01 01:03:18;;;;;;;18.92;13.73;;;-1.60;99.90;;;;;;5011549;28;20091;-37
2023/03/01 01:05:43;;;;;;;22.60;14.88;;;-1.60;99.90;;;;;;5011636;28;20037;-38
2023/03/01 01:08:09;;;;;;;19.55;14.85;;;-1.70;99.90;;;;;;5011493;28;20534;-36
2023/03/01 01:10:35;;;;;;;22.73;14.68;;;-1.70;99.90;;;;;;5011491;28;20044;-34
2023/03/01 01:13:00;;;;;;;21.33;14.77;;;-1.70;99.90;;;;;;5011231;28;20120;-40
2023/03/01 01:15:27;;;;;;;21.80;14.43;;;-1.70;99.90;;;;;;5009679;28;20084;-39
2023/03/01 01:17:52;;;;;;;21.30;14.25;;;-1.70;99.90;;;;;;5011783;28;20046;-38
2023/03/01 01:20:18;;;;;;;21.13;14.35;;;-1.70;99.90;;;;;;5011195;28;20046;-36
2023/03/01 01:22:44;;;;;;;21.88;14.80;;;-1.80;99.90;;;;;;5020895;28;20068;-37
2023/03/01 01:25:10;;;;;;;22.02;14.90;;;-1.80;99.90;;;;;;5029708;28;20108;-35
2023/03/01 01:27:36;;;;;;;24.77;14.82;;;-1.80;99.90;;;;;;5030997;28;20037;-38
2023/03/01 01:30:03;;;;;;;21.67;14.60;;;-1.80;99.90;;;;;;5013483;28;20042;-38
2023/03/01 01:32:29;;;;;;;23.77;15.52;;;-1.90;99.90;;;;;;5030972;28;20045;-39
2023/03/01 01:34:55;;;;;;;24.33;16.55;;;-1.90;99.90;;;;;;5029505;28;20057;-38
2023/03/01 01:37:21;;;;;;;20.85;13.25;;;-1.90;99.90;;;;;;5015038;28;20038;-40
2023/03/01 01:39:46;;;;;;;24.08;15.18;;;-1.90;99.90;;;;;;5009863;28;20044;-41
2023/03/01 01:42:17;;;;;;;22.33;14.95;;;-1.90;99.90;;;;;;5009579;28;20128;-35
2023/03/01 01:44:46;;;;;;;22.95;14.63;;;-1.90;99.90;;;;;;5011286;28;20042;-39
2023/03/01 01:47:19;;;;;;;23.02;15.02;;;-1.90;99.90;;;;;;5031642;28;20042;-36
2023/03/01 01:49:55;;;;;;;21.85;15.45;;;-2.00;99.90;;;;;;5010140;28;20042;-37
2023/03/01 01:52:32;;;;;;;24.50;15.43;;;-2.00;99.90;;;;;;5015108;28;20495;-35
2023/03/01 01:55:07;;;;;;;22.45;14.35;;;-2.00;99.90;;;;;;5026226;28;20231;-36
2023/03/01 01:57:41;;;;;;;19.58;14.07;;;-2.00;99.90;;;;;;5025308;28;20073;-39
2023/03/01 02:00:08;;;;;;;;;;;-2.00;99.90;;;;;;5023906;28;20049;-38
2023/03/01 02:02:34;;;;;;;22.65;15.27;;;-2.00;99.90;;;;;;5017322;28;19917;-36
2023/03/01 02:05:38;;;;;;;20.55;13.77;;;-2.00;99.90;;;;;;5023094;28;20025;-38
2023/03/01 02:08:04;;;;;;;23.15;13.98;;;-2.10;99.90;;;;;;5018168;28;20073;-36
2023/03/01 02:10:35;;;;;;;24.70;14.50;;;-2.10;99.90;;;;;;5020736;28;20033;-36
2023/03/01 02:13:02;;;;;;;21.83;15.57;;;-2.10;99.90;;;;;;5025523;28;20502;-39
2023/03/01 02:15:32;;;;;;;27.63;17.15;;;-2.10;99.90;;;;;;5017437;28;20045;-38
2023/03/01 02:17:58;;;;;;;27.60;16.08;;;-2.10;99.90;;;;;;5029178;28;20033;-36
2023/03/01 02:20:38;;;;;;;25.40;16.95;;;-2.10;99.90;;;;;;5028657;28;20046;-36
2023/03/01 02:23:05;;;;;;;27.38;16.45;;;-2.10;99.90;;;;;;5026814;28;20041;-35
2023/03/01 02:25:36;;;;;;;33.15;19.15;;;-2.00;99.90;;;;;;5027668;28;20048;-41
2023/03/01 02:28:17;;;;;;;25.38;16.90;;;-2.00;99.90;;;;;;5015040;28;20117;-38
2023/03/01 02:33:32;;;;;;;26.50;16.52;;;-2.00;99.90;;;;;;5014885;28;20049;-37
2023/03/01 02:36:13;;;;;;;24.88;16.45;;;-2.00;99.90;;;;;;5032276;28;20384;-37
2023/03/01 02:38:39;;;;;;;26.13;17.20;;;-2.00;99.90;;;;;;5027814;28;20041;-36
2023/03/01 02:41:07;;;;;;;24.40;15.65;;;-2.10;99.90;;;;;;5028585;28;20095;-37
2023/03/01 02:43:34;;;;;;;24.88;15.85;;;-2.20;99.90;;;;;;5061524;22;20047;-83
2023/03/01 02:46:16;;;;;;;21.73;15.40;;;-2.20;99.90;;;;;;5042108;28;20029;-83
2023/03/01 02:48:45;;;;;;;22.92;16.25;;;-2.30;99.90;;;;;;5036721;28;20042;-83
2023/03/01 02:51:25;;;;;;;24.60;15.90;;;-2.30;99.90;;;;;;5040854;28;20123;-82
2023/03/01 02:54:17;;;;;;;25.33;16.15;;;-2.30;99.90;;;;;;5031760;28;20037;-82
2023/03/01 02:56:43;;;;;;;22.52;14.75;;;-2.30;99.90;;;;;;5024081;28;20037;-83
2023/03/01 02:59:10;;;;;;;22.85;14.90;;;-2.40;99.90;;;;;;5032381;28;20050;-83
2023/03/01 03:01:36;;;;;;;27.55;15.90;;;-2.50;99.90;;;;;;5020841;28;20055;-81
2023/03/01 03:04:09;;;;;;;26.10;15.38;;;-2.50;99.90;;;;;;5039025;28;20097;-83
2023/03/01 03:06:35;;;;;;;25.58;15.13;;;-2.50;99.90;;;;;;5030155;28;20478;-82
2023/03/01 03:09:02;;;;;;;21.85;16.08;;;-2.50;99.90;;;;;;5029831;28;20056;-83
2023/03/01 03:11:28;;;;;;;22.67;14.90;;;-2.60;99.90;;;;;;5038009;28;20044;-82
2023/03/01 03:13:54;;;;;;;23.67;15.18;;;-2.60;99.90;;;;;;5033831;28;20065;-83
2023/03/01 03:16:21;;;;;;;21.77;14.65;;;-2.60;99.90;;;;;;5033264;28;20034;-82
2023/03/01 03:18:47;;;;;;;21.70;14.15;;;-2.60;99.90;;;;;;5028925;28;20040;-82
2023/03/01 03:21:14;;;;;;;22.33;15.57;;;-2.60;99.90;;;;;;5026341;28;20087;-83
2023/03/01 03:23:40;;;;;;;23.80;15.52;;;-2.60;99.90;;;;;;5027578;28;20037;-83
2023/03/01 03:26:06;;;;;;;23.23;14.32;;;-2.60;99.90;;;;;;5038986;28;20049;-83
2023/03/01 03:28:33;;;;;;;23.75;14.18;;;-2.70;99.90;;;;;;5037268;28;20071;-83
2023/03/01 03:31:03;;;;;;;24.42;15.80;;;-2.70;99.90;;;;;;5013839;28;20052;-82
2023/03/01 03:33:32;;;;;;;22.80;15.95;;;-2.70;99.90;;;;;;5014344;28;20046;-82
2023/03/01 03:35:58;;;;;;;22.75;15.18;;;-2.70;99.90;;;;;;5035071;28;20034;-83
2023/03/01 03:38:24;;;;;;;21.92;14.80;;;-2.70;99.90;;;;;;5039460;28;20037;-83
2023/03/01 03:41:02;;;;;;;23.00;16.05;;;-2.70;99.90;;;;;;5023963;28;20034;-83
2023/03/01 03:43:30;;;;;;;22.17;14.98;;;-2.80;99.90;;;;;;5031794;28;20092;-83
2023/03/01 03:45:56;;;;;;;24.83;15.25;;;-2.80;99.90;;;;;;5006238;28;20042;-83
2023/03/01 03:48:23;;;;;;;22.70;15.82;;;-2.80;99.90;;;;;;5011145;28;20566;-82
2023/03/01 03:50:51;;;;;;;27.60;15.90;;;-2.80;99.90;;;;;;5023661;28;20389;-83
2023/03/01 03:53:17;;;;;;;22.83;14.55;;;-2.80;99.90;;;;;;5019391;28;20038;-83
2023/03/01 03:55:44;;;;;;;26.38;15.80;;;-2.80;99.90;;;;;;5012282;28;20196;-83
2023/03/01 03:58:11;;;;;;;23.27;15.30;;;-2.80;99.90;;;;;;5030370;28;20038;-82
2023/03/01 04:00:42;;;;;;;24.20;15.30;;;-2.80;99.90;;;;;;5030555;28;20038;-83
2023/03/01 04:03:09;;;;;;;25.27;15.55;;;-2.90;99.90;;;;;;5035750;28;20072;-82
2023/03/01 04:05:36;;;;;;;27.23;16.80;;;-2.90;99.90;;;;;;5030047;28;20060;-83
2023/03/01 04:08:02;;;;;;;22.60;15.50;;;-2.90;99.90;;;;;;5039634;28;20041;-82
2023/03/01 04:10:37;;;;;;;22.83;15.45;;;-2.90;99.90;;;;;;5037031;28;20518;-83
2023/03/01 04:13:03;;;;;;;23.17;15.18;;;-2.90;99.90;;;;;;5040676;28;20116;-82
2023/03/01 04:15:30;;;;;;;23.63;15.93;;;-3.00;99.90;;;;;;5022741;28;20503;-81
2023/03/01 04:17:56;;;;;;;26.42;15.93;;;-2.90;99.90;;;;;;5031424;28;20035;-82
2023/03/01 04:20:24;;;;;;;23.48;14.60;;;-3.00;99.90;;;;;;5035813;28;20347;-83
2023/03/01 04:22:52;;;;;;;24.75;15.90;;;-3.00;99.90;;;;;;5021172;28;20484;-82
2023/03/01 04:25:19;;;;;;;22.13;15.00;;;-3.00;99.90;;;;;;5011028;28;20034;-82
2023/03/01 04:27:45;;;;;;;24.45;16.02;;;-3.10;99.90;;;;;;5037970;28;20049;-82
2023/03/01 04:30:11;;;;;;;22.83;15.30;;;-3.00;99.90;;;;;;5036671;28;20041;-82
2023/03/01 04:32:36;;;;;;;23.30;14.93;;;-2.90;99.90;;;;;;5019569;28;20466;-82
2023/03/01 04:35:02;;;;;;;20.30;14.43;;;-3.10;99.90;;;;;;5028624;28;20033;-83
2023/03/01 04:37:29;;;;;;;21.88;15.15;;;-3.00;99.90;;;;;;5034523;28;20055;-83
2023/03/01 04:39:55;;;;;;;23.75;15.02;;;-3.10;99.90;;;;;;5019458;28;20049;-83
2023/03/01 04:42:20;;;;;;;22.30;14.38;;;-3.10;99.90;;;;;;5037347;28;20038;-82
2023/03/01 04:44:46;;;;;;;22.05;14.45;;;-3.10;99.90;;;;;;5033506;28;20029;-83
2023/03/01 04:47:12;;;;;;;23.02;16.25;;;-3.20;99.90;;;;;;5039945;28;20037;-83
2023/03/01 04:49:38;;;;;;;23.38;15.50;;;-3.20;99.90;;;;;;5035365;28;20033;-82
2023/03/01 04:52:04;;;;;;;21.08;14.48;;;-3.20;99.90;;;;;;5031469;28;20080;-82
2023/03/01 04:54:31;;;;;;;22.38;15.60;;;-3.20;99.90;;;;;;5033012;28;20526;-82
2023/03/01 04:56:58;;;;;;;20.77;14.30;;;-3.20;99.90;;;;;;5015182;28;20419;-82
2023/03/01 04:59:24;;;;;;;23.20;14.95;;;-3.20;99.90;;;;;;5025444;28;20578;-82
2023/03/01 05:02:00;;;;;;;22.45;15.30;;;-3.20;99.90;;;;;;5030272;28;20052;-82
2023/03/01 05:04:26;;;;;;;23.85;14.50;;;-3.30;99.90;;;;;;5035814;28;20045;-83
2023/03/01 05:06:53;;;;;;;24.13;14.73;;;-3.20;99.90;;;;;;5032137;28;20087;-83
2023/03/01 05:09:19;;;;;;;24.00;15.00;;;-3.20;99.90;;;;;;5019346;28;20037;-83
2023/03/01 05:11:45;;;;;;;23.42;14.93;;;-3.30;99.90;;;;;;5012244;28;20499;-83
2023/03/01 05:14:11;;;;;;;21.40;13.98;;;-3.30;99.90;;;;;;5037534;28;20037;-82
2023/03/01 05:16:37;;;;;;;23.73;15.27;;;-3.30;99.90;;;;;;5025992;28;20042;-83
2023/03/01 05:19:11;;;;;;;24.63;15.98;;;-3.30;99.90;;;;;;5011062;28;20042;-83
2023/03/01 05:22:01;;;;;;;27.33;16.75;;;-3.20;99.90;;;;;;5012522;28;20034;-83
2023/03/01 05:24:25;;;;;;;24.30;15.77;;;-3.30;99.90;;;;;;5038329;28;20072;-83
2023/03/01 05:26:51;;;;;;;20.77;15.10;;;-3.30;99.90;;;;;;5031939;28;20509;-82
2023/03/01 05:29:24;;;;;;;21.02;14.55;;;-3.30;99.90;;;;;;5024160;28;20046;-83
2023/03/01 05:32:02;;;;;;;20.90;14.77;;;-3.30;99.90;;;;;;5032935;28;20045;-82
2023/03/01 05:34:35;;;;;;;22.15;13.95;;;-3.30;99.90;;;;;;5021201;28;20037;-83
2023/03/01 05:37:01;;;;;;;25.17;14.77;;;-3.30;99.90;;;;;;5021066;28;20038;-82
2023/03/01 05:39:28;;;;;;;19.40;13.38;;;-3.40;99.90;;;;;;5018777;28;20048;-82
2023/03/01 05:42:00;;;;;;;23.02;14.95;;;-3.40;99.90;;;;;;5034578;28;20053;-82
2023/03/01 05:44:28;;;;;;;19.70;13.48;;;-3.40;99.90;;;;;;5021078;28;20045;-82
2023/03/01 05:46:54;;;;;;;21.42;14.27;;;-3.40;99.90;;;;;;5034854;28;20041;-81
2023/03/01 05:49:20;;;;;;;19.85;13.82;;;-3.40;99.90;;;;;;5038729;28;20037;-83
2023/03/01 05:51:51;;;;;;;22.00;14.50;;;-3.40;99.90;;;;;;5026827;28;20519;-82
2023/03/01 05:54:17;;;;;;;20.15;13.80;;;-3.40;99.90;;;;;;5036956;28;20041;-83
2023/03/01 05:56:44;;;;;;;21.23;13.68;;;-3.40;99.90;;;;;;5037944;28;20488;-82
2023/03/01 05:59:10;;;;;;;23.60;14.38;;;-3.40;99.90;;;;;;5037701;28;20052;-82
2023/03/01 06:01:36;;;;;;;23.88;14.20;;;-3.40;99.90;;;;;;5036475;28;20042;-82
2023/03/01 06:04:03;;;;;;;21.05;14.45;;;-3.50;99.90;;;;;;5037091;28;20068;-82
2023/03/01 06:06:28;;;;;;;21.17;14.05;;;-3.50;99.90;;;;;;5034364;28;20065;-83
2023/03/01 06:08:54;;;;;;;21.27;14.35;;;-3.50;99.90;;;;;;5038356;28;20044;-82
2023/03/01 06:11:21;;;;;;;19.85;13.43;;;-3.50;99.90;;;;;;5024124;28;20034;-82
2023/03/01 06:13:47;;;;;;;22.27;14.60;;;-3.50;99.90;;;;;;5015298;28;20038;-82
2023/03/01 06:16:14;;;;;;;22.27;15.10;;;-3.50;99.90;;;;;;5041822;28;20144;-83
2023/03/01 06:18:40;;;;;;;21.30;14.73;;;-3.50;99.90;;;;;;5042254;28;20120;-82
2023/03/01 06:21:08;;;;;;;23.95;15.05;;;-3.60;99.90;;;;;;5032870;28;20137;-83
2023/03/01 06:23:34;;;;;;;22.33;15.00;;;-3.60;99.90;;;;;;5037258;28;20065;-81
2023/03/01 06:26:00;;;;;;;24.65;15.98;;;-3.60;99.90;;;;;;5040755;28;20041;-82
2023/03/01 06:28:26;;;;;;;20.52;14.25;;;-3.60;99.90;;;;;;5018195;28;20113;-83
2023/03/01 06:30:52;;;;;;;23.58;15.68;;;-3.60;99.90;;;;;;5036328;28;20042;-81
2023/03/01 06:33:19;;;;;;;31.38;17.30;;;-3.60;99.90;;;;;;5027108;28;20048;-83
2023/03/01 06:35:46;;;;;;;24.85;15.25;;;-3.50;99.90;;;;;;5040826;28;20072;-83
2023/03/01 06:38:14;;;;;;;25.50;15.70;;;-3.60;99.90;;;;;;5041475;28;20093;-83
2023/03/01 06:40:41;;;;;;;26.58;15.07;;;-3.60;99.90;;;;;;5033343;28;20101;-82
2023/03/01 06:43:07;;;;;;;26.13;16.05;;;-3.60;99.90;;;;;;5021004;28;20515;-83
2023/03/01 06:45:33;;;;;;;23.02;15.23;;;-3.60;99.90;;;;;;5012682;28;20038;-83
2023/03/01 06:48:07;;;;;;;22.80;14.82;;;-3.60;99.90;;;;;;5014365;28;20171;-82
2023/03/01 06:50:33;;;;;;;21.58;14.52;;;-3.60;99.90;;;;;;5036511;28;20045;-83
2023/03/01 06:52:59;;;;;;;25.73;14.63;;;-3.60;99.90;;;;;;5036126;28;20044;-82
2023/03/01 06:55:25;;;;;;;22.75;15.82;;;-3.50;99.90;;;;;;5034812;28;20046;-83
2023/03/01 06:57:59;;;;;;;25.17;15.38;;;-3.50;99.90;;;;;;5039262;28;20041;-83
2023/03/01 07:00:26;;;;;;;26.98;16.33;;;-3.50;99.90;;;;;;5034100;28;20076;-83
2023/03/01 07:02:52;;;;;;;23.55;16.30;;;-3.50;99.90;;;;;;5029927;28;20045;-83
2023/03/01 07:05:18;;;;;;;26.38;17.08;;;-3.40;99.90;;;;;;5016065;28;20034;-82
2023/03/01 07:07:44;;;;;;;26.55;15.80;;;-3.40;99.90;;;;;;5040771;28;20082;-83
2023/03/01 07:10:10;;;;;;;29.55;18.65;;;-3.30;99.90;;;;;;5026333;28;20495;-83
2023/03/01 07:12:36;;;;;;;25.48;17.27;;;-3.30;99.90;;;;;;5010827;28;20038;-83
2023/03/01 07:15:02;;;;;;;29.13;17.33;;;-3.20;99.90;;;;;;5035422;28;20049;-82
2023/03/01 07:17:28;;;;;;;28.48;17.40;;;-3.20;99.90;;;;;;5036936;28;20046;-84
2023/03/01 07:19:54;;;;;;;29.27;16.95;;;-3.20;99.90;;;;;;5037199;28;20496;-82
2023/03/01 07:22:19;;;;;;;31.80;18.25;;;-3.10;99.90;;;;;;5029702;28;20041;-83
2023/03/01 07:24:45;;;;;;;30.48;19.02;;;-3.10;99.90;;;;;;5034617;28;20046;-82
2023/03/01 07:27:11;;;;;;;25.95;17.02;;;-3.00;99.90;;;;;;5039697;28;20389;-82
2023/03/01 07:29:36;;;;;;;28.58;18.17;;;-2.90;99.90;;;;;;5035216;28;20120;-82
2023/03/01 07:32:03;;;;;;;25.13;17.73;;;-2.90;99.90;;;;;;5034972;28;20526;-82
2023/03/01 07:34:29;;;;;;;29.98;19.30;;;-2.80;99.90;;;;;;5016499;28;20056;-83
2023/03/01 07:36:55;;;;;;;32.28;19.88;;;-2.80;99.90;;;;;;5027725;28;20072;-83
2023/03/01 07:39:22;;;;;;;30.42;18.77;;;-2.70;99.90;;;;;;5030249;28;20139;-82
2023/03/01 07:41:49;;;;;;;34.08;20.45;;;-2.70;99.90;;;;;;5040336;28;20045;-82
2023/03/01 07:44:16;;;;;;;31.88;19.55;;;-2.60;99.90;;;;;;5007327;28;20041;-83
2023/03/01 07:46:42;;;;;;;27.33;18.50;;;-2.60;99.90;;;;;;5023069;28;20038;-81
2023/03/01 07:49:07;;;;;;;29.98;19.30;;;-2.50;99.90;;;;;;5032489;28;20029;-82
2023/03/01 07:51:33;;;;;;;35.22;21.48;;;-2.40;99.90;;;;;;5025885;28;20106;-82
2023/03/01 07:53:59;;;;;;;35.35;20.10;;;-2.30;99.90;;;;;;5024504;28;20045;-83
2023/03/01 07:56:24;;;;;;;34.35;19.90;;;-2.20;99.90;;;;;;5033817;28;20042;-82
2023/03/01 07:58:50;;;;;;;33.55;21.77;;;-2.00;99.90;;;;;;5011377;28;20042;-82
2023/03/01 08:01:19;;;;;;;35.28;24.02;;;-1.80;99.90;;;;;;5028303;28;20069;-81
2023/03/01 08:03:44;;;;;;;35.42;20.80;;;-1.70;99.90;;;;;;5019057;28;20041;-82
2023/03/01 08:06:12;;;;;;;29.05;20.30;;;-1.50;99.90;;;;;;5035690;28;20040;-83
2023/03/01 08:08:38;;;;;;;35.55;22.70;;;-1.20;99.90;;;;;;5028086;28;20054;-82
2023/03/01 08:11:05;;;;;;;37.55;23.95;;;-1.00;99.90;;;;;;5029757;28;20044;-82
2023/03/01 08:13:31;;;;;;;34.78;23.75;;;-0.70;99.90;;;;;;5039540;28;20037;-82
2023/03/01 08:16:05;;;;;;;34.35;24.00;;;-0.30;99.90;;;;;;5028080;28;20052;-83
2023/03/01 08:18:31;;;;;;;33.28;23.08;;;0.30;99.90;;;;;;5031611;28;20396;-81
2023/03/01 08:21:05;;;;;;;32.50;22.65;;;0.80;99.90;;;;;;5040496;28;20052;-82
2023/03/01 08:23:30;;;;;;;;;;;1.40;99.90;;;;;;5016298;28;20101;-82
2023/03/01 08:26:04;;;;;;;27.83;20.65;;;1.80;99.90;;;;;;5034307;28;19971;-83
2023/03/01 08:28:30;;;;;;;28.88;20.60;;;2.40;99.90;;;;;;5038848;28;20049;-82
2023/03/01 08:30:55;;;;;;;29.42;20.75;;;2.90;99.90;;;;;;5040756;28;20044;-83
2023/03/01 08:33:21;;;;;;;26.83;19.85;;;3.40;99.90;;;;;;5021637;28;20038;-81
2023/03/01 08:35:46;;;;;;;25.38;18.73;;;4.00;99.90;;;;;;5039324;28;20093;-82
2023/03/01 08:38:12;;;;;;;25.42;18.60;;;4.50;99.90;;;;;;5032686;28;20051;-83
2023/03/01 08:40:38;;;;;;;25.13;18.60;;;4.90;99.90;;;;;;5034037;28;20046;-83
2023/03/01 08:43:03;;;;;;;25.15;18.13;;;5.30;99.90;;;;;;5039195;28;20029;-83
2023/03/01 08:45:29;;;;;;;22.67;18.05;;;5.70;99.90;;;;;;5037628;28;20061;-83
2023/03/01 08:47:54;;;;;;;19.83;16.65;;;6.00;99.90;;;;;;5041204;28;20496;-83
2023/03/01 08:50:20;;;;;;;18.75;15.15;;;6.50;99.90;;;;;;5039745;28;20048;-83
2023/03/01 08:52:46;;;;;;;17.50;14.43;;;6.90;99.90;;;;;;5018699;28;20060;-83
2023/03/01 08:55:12;;;;;;;16.33;14.20;;;7.20;99.90;;;;;;5040039;28;20045;-82
2023/03/01 08:57:37;;;;;;;16.27;13.90;;;7.50;99.90;;;;;;5031575;28;20049;-83
2023/03/01 09:00:08;;;;;;;16.23;13.18;;;7.80;99.90;;;;;;5013965;28;20041;-83
2023/03/01 09:02:33;;;;;;;17.17;13.52;;;8.00;99.90;;;;;;5032937;28;20041;-83
2023/03/01 09:04:59;;;;;;;14.63;12.82;;;8.30;99.90;;;;;;5032472;28;20044;-83
2023/03/01 09:07:28;;;;;;;16.48;12.57;;;8.50;99.90;;;;;;5018957;28;20104;-84
2023/03/01 09:09:55;;;;;;;14.95;13.00;;;8.80;99.90;;;;;;5025345;28;20132;-84
2023/03/01 09:12:21;;;;;;;15.65;13.43;;;9.00;99.90;;;;;;5032632;28;20042;-83
2023/03/01 09:14:46;;;;;;;14.05;12.52;;;9.20;99.90;;;;;;5029138;28;20091;-83
2023/03/01 09:17:12;;;;;;;14.07;12.38;;;9.60;99.90;;;;;;5035847;28;20033;-84
2023/03/01 09:19:38;;;;;;;13.68;12.00;;;9.80;99.90;;;;;;5038388;28;20045;-83
2023/03/01 09:22:04;;;;;;;14.07;12.23;;;10.20;99.90;;;;;;5017082;28;20432;-83
2023/03/01 09:24:30;;;;;;;13.20;11.38;;;10.40;99.90;;;;;;5025719;28;20038;-83
2023/03/01 09:26:56;;;;;;;12.15;10.90;;;10.60;99.90;;;;;;5019650;28;20404;-83
2023/03/01 09:29:23;;;;;;;11.18;10.07;;;10.80;99.90;;;;;;5034272;28;20052;-83
2023/03/01 09:31:49;;;;;;;12.75;10.65;;;11.20;99.90;;;;;;5015625;28;20408;-83
2023/03/01 09:34:19;;;;;;;12.65;11.32;;;11.30;99.90;;;;;;5031099;28;20052;-83
2023/03/01 09:36:44;;;;;;;13.68;11.48;;;11.60;99.90;;;;;;5020479;28;20403;-83
2023/03/01 09:39:10;;;;;;;13.27;10.20;;;11.60;99.90;;;;;;5015196;28;20106;-84
2023/03/01 09:42:02;;;;;;;8.57;7.45;;;12.00;99.90;;;;;;5034745;28;20044;-84
2023/03/01 09:44:31;;;;;;;8.35;7.50;;;12.20;67.20;;;;;;5037216;28;20045;-84
2023/03/01 09:46:58;;;;;;;11.65;9.15;;;12.50;72.00;;;;;;5034664;28;20101;-83
2023/03/01 09:49:37;;;;;;;9.25;7.68;;;12.10;74.60;;;;;;5030832;28;20041;-84
2023/03/01 09:52:21;;;;;;;11.90;8.95;;;12.40;68.70;;;;;;5009140;28;20500;-83
2023/03/01 09:54:53;;;;;;;9.93;8.90;;;12.50;62.90;;;;;;5028440;28;20068;-84
2023/03/01 09:58:04;;;;;;;10.85;9.65;;;12.70;64.20;;;;;;5009590;28;20034;-84
2023/03/01 10:00:49;;;;;;;9.48;8.48;;;12.70;58.70;;;;;;4982645;28;20046;-84
2023/03/01 10:03:25;;;;;;;7.47;6.07;;;13.00;59.00;;;;;;4992670;28;20057;-83
2023/03/01 10:06:23;;;;;;;6.43;5.10;;;13.00;57.60;;;;;;5009009;28;20508;-83
2023/03/01 10:09:03;;;;;;;6.45;4.80;;;12.70;55.80;;;;;;5003873;28;20078;-84
2023/03/01 10:11:37;;;;;;;4.60;3.85;;;13.00;55.60;;;;;;5030969;28;20041;-84
2023/03/01 10:14:17;;;;;;;5.65;4.10;;;12.90;56.40;;;;;;5018084;28;20045;-84
2023/03/01 10:17:00;;;;;;;4.75;4.22;;;13.30;56.50;;;;;;5021205;28;20049;-84
2023/03/01 10:19:40;;;;;;;;;;;13.40;51.40;;;;;;5028207;28;20068;-84
2023/03/01 10:22:23;;;;;;;5.60;3.78;;;12.80;49.60;;;;;;5026540;28;20015;-84
2023/03/01 10:24:51;;;;;;;4.05;3.45;;;12.90;54.90;;;;;;5005830;28;20037;-83
2023/03/01 10:27:24;;;;;;;4.35;3.50;;;13.30;56.00;;;;;;4999970;28;20052;-85
2023/03/01 10:30:26;;;;;;;4.32;3.47;;;13.90;54.60;;;;;;5031706;28;20042;-84
2023/03/01 10:32:53;;;;;;;7.30;4.10;;;14.60;49.30;;;;;;5000611;28;20081;-84
2023/03/01 10:35:21;;;;;;;5.13;4.13;;;14.80;51.70;;;;;;5015601;28;20040;-84
2023/03/01 10:38:05;;;;;;;6.05;3.92;;;15.00;51.20;;;;;;5005080;28;20088;-84
2023/03/01 10:40:32;;;;;;;4.22;3.83;;;15.40;48.90;;;;;;5020538;28;20067;-84
2023/03/01 10:43:00;;;;;;;4.13;3.70;;;15.60;49.00;;;;;;5034752;28;20038;-84
2023/03/01 10:45:29;;;;;;;3.67;3.08;;;16.10;48.80;;;;;;5031274;28;20049;-84
2023/03/01 10:48:19;;;;;;;5.47;3.53;;;16.40;47.60;;;;;;5027361;28;20179;-84
2023/03/01 10:50:50;;;;;;;3.47;3.17;;;16.70;42.50;;;;;;5014379;28;20049;-84
2023/03/01 10:53:29;;;;;;;4.13;3.65;;;17.10;46.30;;;;;;5004781;28;20049;-85
2023/03/01 10:56:09;;;;;;;3.97;3.60;;;17.20;43.20;;;;;;5028195;28;20042;-84
2023/03/01 10:58:37;;;;;;;4.78;3.75;;;17.20;43.00;;;;;;5028799;28;20050;-85
2023/03/01 11:01:21;;;;;;;4.13;3.72;;;17.20;43.70;;;;;;5011118;28;20042;-84
2023/03/01 11:04:06;;;;;;;4.32;3.70;;;17.10;43.50;;;;;;5035799;28;20060;-84
2023/03/01 11:06:34;;;;;;;5.22;3.97;;;17.10;41.50;;;;;;5034142;28;20034;-84
2023/03/01 11:09:22;;;;;;;5.80;4.40;;;17.30;43.20;;;;;;5026230;28;20038;-85
2023/03/01 11:11:59;;;;;;;4.30;3.80;;;17.50;40.40;;;;;;5026609;28;20049;-85
2023/03/01 11:14:30;;;;;;;5.65;4.53;;;17.70;41.50;;;;;;5030597;28;20042;-85
2023/03/01 11:17:05;;;;;;;4.60;4.20;;;17.60;42.20;;;;;;5038615;28;20052;-84
2023/03/01 11:19:32;;;;;;;5.07;4.25;;;17.80;41.70;;;;;;5027425;28;20034;-85
2023/03/01 11:22:00;;;;;;;4.68;4.28;;;17.80;42.10;;;;;;5028506;28;20030;-84
2023/03/01 11:24:47;;;;;;;5.00;4.60;;;18.20;41.80;;;;;;5014268;28;20041;-85
2023/03/01 11:27:18;;;;;;;7.28;4.75;;;18.00;37.70;;;;;;5035061;28;20089;-85
2023/03/01 11:29:50;;;;;;;6.28;4.63;;;17.70;41.00;;;;;;5033247;28;20037;-85
2023/03/01 11:32:18;;;;;;;5.40;4.90;;;17.80;41.70;;;;;;5035638;28;20115;-85
2023/03/01 11:34:53;;;;;;;5.57;4.78;;;18.00;41.30;;;;;;5032739;28;20033;-84
2023/03/01 11:37:24;;;;;;;5.25;4.50;;;18.20;40.50;;;;;;5036087;28;20034;-85
2023/03/01 11:40:19;;;;;;;5.72;4.72;;;18.10;40.00;;;;;;5037574;28;20038;-84
2023/03/01 11:43:12;;;;;;;7.65;5.25;;;17.60;40.00;;;;;;5022192;28;20056;-85
2023/03/01 11:46:10;;;;;;;5.50;5.00;;;17.70;39.80;;;;;;5034298;28;20037;-85
2023/03/01 11:49:15;;;;;;;5.38;4.88;;;17.90;38.10;;;;;;5006523;28;20053;-84
2023/03/01 11:51:59;;;;;;;5.82;5.03;;;17.90;39.80;;;;;;5013967;28;20041;-84
2023/03/01 11:54:50;;;;;;;6.22;5.63;;;18.20;39.40;;;;;;5034457;28;20038;-85
2023/03/01 11:57:37;;;;;;;6.88;5.50;;;18.40;40.60;;;;;;5019838;28;20048;-85
2023/03/01 12:00:25;;;;;;;5.72;5.28;;;18.90;40.60;;;;;;5011177;28;20559;-87
2023/03/01 12:03:28;;;;;;;6.47;5.88;;;18.70;38.50;;;;;;5030105;28;20096;-85
2023/03/01 12:06:32;;;;;;;6.40;5.68;;;18.60;37.70;;;;;;5028684;28;20042;-84
2023/03/01 12:09:16;;;;;;;6.30;5.70;;;18.90;40.00;;;;;;4954064;28;20497;-84
2023/03/01 12:12:14;;;;;;;6.40;5.47;;;18.80;40.20;;;;;;4974772;28;20560;-85
2023/03/01 12:14:45;;;;;;;5.68;5.18;;;19.40;38.50;;;;;;5007251;28;20049;-84
2023/03/01 12:17:43;;;;;;;5.72;5.07;;;19.70;39.20;;;;;;5020388;28;20064;-85
2023/03/01 12:20:20;;;;;;;5.97;5.38;;;19.50;37.30;;;;;;5028275;28;20440;-85
2023/03/01 12:23:04;;;;;;;6.13;5.57;;;19.50;39.10;;;;;;5034127;28;20128;-87
2023/03/01 12:25:42;;;;;;;7.97;5.45;;;19.80;38.70;;;;;;5036153;28;20037;-87
2023/03/01 12:28:17;;;;;;;6.50;5.68;;;20.40;38.60;;;;;;5020157;28;20518;-86
2023/03/01 12:31:08;;;;;;;7.53;5.63;;;20.30;37.30;;;;;;5020793;28;20059;-87
2023/03/01 12:34:12;;;;;;;6.20;5.18;;;20.20;36.90;;;;;;5034349;28;20476;-86
2023/03/01 12:36:44;;;;;;;6.57;5.72;;;20.40;36.50;;;;;;5012257;28;20057;-83
2023/03/01 12:39:49;;;;;;;6.60;5.90;;;20.70;38.00;;;;;;5031681;28;20099;-82
2023/03/01 12:42:18;;;;;;;6.15;5.55;;;20.70;36.40;;;;;;5028469;28;20097;-83
2023/03/01 12:45:02;;;;;;;6.55;5.95;;;20.60;37.30;;;;;;5024497;28;20458;-82
2023/03/01 12:47:48;;;;;;;6.43;5.70;;;20.50;35.70;;;;;;5036436;28;20042;-82
2023/03/01 12:50:21;;;;;;;6.90;6.20;;;20.60;35.50;;;;;;5024003;28;20048;-83
2023/03/01 12:52:56;;;;;;;6.15;5.57;;;20.70;35.20;;;;;;5024732;28;20060;-83
2023/03/01 12:55:26;;;;;;;6.88;6.15;;;20.70;35.70;;;;;;5031862;28;20079;-83